Kamera  Kamera


Thunder radar more information blitzortung!


Rain radar more information rain snow radar



Nearby METAR Reports

   
EHVK - Volkel Rnlafb, Netherlands
Distance from station: SW 18 km
Updated: 10-12-2019 16:55
Overcast  
Overcast  
   Wind: South 25.9 km/h
Wind: South 25.9 km/h
Temperature: 5°C
Wind Chill: 1°C
Dew Point: 1°C
Humidity: 76%
Barometer: 1018 hPa
Clouds: Overcast
Visibility: More than 10 km
Cloud details: Overcast 10000 ft
EHVK 101555Z AUTO 18014KT 150V230 9999 OVC100 05/01 Q1018 BLU 20006KT CAVOK BECMG 19012G22KT
EDLV - Niederrhein, Germany
Distance from station: SE 25 km
Updated: 10-12-2019 16:50
Clear  
Clear  
   Wind: South 25.9 km/h
Wind: South 25.9 km/h
Temperature: 5°C
Wind Chill: 1°C
Dew Point: 1°C
Humidity: 76%
Barometer: 1019 hPa
Visibility: More than 10 km
Cloud details: Clear
EDLV 101550Z 19014KT CAVOK 05/01 Q1019
EHDL - Deelen Rnlafb, Netherlands
Distance from station: N 35 km
Updated: 10-12-2019 16:55
Overcast  
Overcast  
   Wind: South 25.9 km/h
Wind: South 25.9 km/h
Temperature: 5°C
Wind Chill: 1°C
Dew Point: 1°C
Humidity: 76%
Barometer: 1017 hPa
Clouds: Overcast
Visibility: More than 10 km
Cloud details: Overcast 12000 ft
EHDL 101555Z AUTO 18014KT 130V240 9999 OVC120 05/01 Q1017 BLU
EHEH - Eindhoven Rnlafb, Netherlands
Distance from station: SW 48 km
Updated: 10-12-2019 16:55
Overcast  
Overcast  
   Wind: South 25.9 km/h
Wind: South 25.9 km/h
Temperature: 6°C
Wind Chill: 2°C
Dew Point: 1°C
Humidity: 71%
Barometer: 1018 hPa
Clouds: Overcast
Visibility: More than 10 km
Cloud details: Few Clouds 9600 ft,
Overcast 10000 ft
EHEH 101555Z AUTO 18014KT 160V220 9999 FEW096 OVC100 06/01 Q1018 BLU 19015G25KT CAVOK
EHGR - Gilze-Rijen Rnla, Netherlands
Distance from station: WSW 70 km
Updated: 10-12-2019 16:55
Overcast  
Overcast  
   Wind: South 27.8 km/h
Wind: South 27.8 km/h
Temperature: 6°C
Wind Chill: 2°C
Dew Point: 1°C
Humidity: 71%
Barometer: 1017 hPa
Clouds: Overcast
Visibility: More than 10 km
Cloud details: Few Clouds 8800 ft,
Partly Cloudy 9300 ft,
Overcast 10000 ft
EHGR 101555Z AUTO 18015KT 140V220 9999 FEW088 SCT093 OVC100 06/01 Q1017 BLU
EBBL - Kleine-Brogel(Ba, Belgium
Distance from station: SSW 71 km
Updated: 10-12-2019 15:55
Mostly Cloudy  
Mostly Cloudy  
   Wind: SSW 16.7 km/h
Wind: SSW 16.7 km/h
Temperature: 5°C
Wind Chill: 2°C
Dew Point: 1°C
Humidity: 76%
Barometer: 1020 hPa
Clouds: Mostly Cloudy
Visibility: More than 10 km
Cloud details: Mostly Cloudy 15000 ft
EBBL 101455Z 20009KT 9999 BKN150 05/01 Q1020 BLU BLU

Script developed by  Saratoga-weather.org Adapted for the template by  Weerstation Leuven